Aroma Park, Illinois
Current Conditions -  °F | °C
As of 7:35 PM on Monday 20 Oct 2014 (Local Time) from KIKK Reporting Station
Broken Clouds Broken Clouds  
Wind Chill: 12°   Ceiling: 7000
Heat Index: 12°   Visibility: 10mi
Dew Point:   Wind: 6mph
Humidity: 81%   Direction: 30°NNE
Pressure: 29.96"   Gusts: NA
Location:  41.08°N, 87.81°W
Report Text: KIKK 210035Z AUTO 03005KT 10SM BKN070 12/09 A2996 RMK AO2 T01220090
Loading
Personal Weather Stations






























Interactive Weather Map
Tropical Storm Tracking
New forecast layout! Learn more

10-Day Weather Forecast

Advertisements
Track Severe Weather on mobile